Time;durP1;ratioP1;P1;durP2;ratioP2;P2;SDS_P1;SDS_P2;PMS_P1;PMS_P2;Temp;Humidity;BMP_temperature;BMP_pressure;BME280_temperature;BME280_humidity;BME280_pressure;Samples;Min_cycle;Max_cycle;Signal;HPM_P1;HPM_P2
2023/04/13 00:01:14;;;;;;;7.70;5.13;;;;;;;;;;5097661;28;20516;-69
2023/04/13 00:03:41;;;;;;;6.67;4.60;;;;;;;;;;5109286;28;20478;-69
2023/04/13 00:06:09;;;;;;;5.53;4.87;;;;;;;;;;5103554;28;20501;-69
2023/04/13 00:08:36;;;;;;;7.13;4.30;;;;;;;;;;5095400;28;20486;-69
2023/04/13 00:11:03;;;;;;;5.20;3.60;;;;;;;;;;5093194;28;20501;-69
2023/04/13 00:13:36;;;;;;;6.87;4.00;;;;;;;;;;5109392;28;20450;-67
2023/04/13 00:16:02;;;;;;;3.90;3.20;;;;;;;;;;5106425;28;20486;-68
2023/04/13 00:18:28;;;;;;;5.20;3.97;;;;;;;;;;5106859;28;20465;-67
2023/04/13 00:20:55;;;;;;;6.13;3.17;;;;;;;;;;5103848;28;20490;-68
2023/04/13 00:23:21;;;;;;;3.60;3.30;;;;;;;;;;5105112;28;20443;-68
2023/04/13 00:25:48;;;;;;;5.63;3.03;;;;;;;;;;5103745;28;20542;-68
2023/04/13 00:28:15;;;;;;;3.90;2.73;;;;;;;;;;5107182;28;20503;-68
2023/04/13 00:30:43;;;;;;;6.00;3.00;;;;;;;;;;5107000;28;20475;-68
2023/04/13 00:33:09;;;;;;;3.10;2.40;;;;;;;;;;5110794;28;20439;-68
2023/04/13 00:35:38;;;;;;;5.63;2.30;;;;;;;;;;5104079;27;20999;-68
2023/04/13 00:38:05;;;;;;;2.97;2.00;;;;;;;;;;5103584;28;20493;-68
2023/04/13 00:40:31;;;;;;;3.37;2.13;;;;;;;;;;5104433;28;20497;-68
2023/04/13 00:42:59;;;;;;;2.50;2.20;;;;;;;;;;5103491;28;20451;-68
2023/04/13 00:45:27;;;;;;;2.10;1.93;;;;;;;;;;5103369;28;20966;-68
2023/04/13 00:47:56;;;;;;;2.30;2.10;;;;;;;;;;5103857;28;20947;-69
2023/04/13 00:50:23;;;;;;;2.60;1.90;;;;;;;;;;5104888;28;20502;-69
2023/04/13 00:52:50;;;;;;;2.47;1.60;;;;;;;;;;5103584;28;20443;-68
2023/04/13 00:55:20;;;;;;;2.30;1.87;;;;;;;;;;5109967;28;20448;-68
2023/04/13 00:57:48;;;;;;;6.20;2.87;;;;;;;;;;5088712;28;20900;-69
2023/04/13 01:00:16;;;;;;;4.17;1.83;;;;;;;;;;5085871;28;20559;-68
2023/04/13 01:02:43;;;;;;;1.50;1.40;;;;;;;;;;5104015;28;20509;-68
2023/04/13 01:05:14;;;;;;;5.67;1.90;;;;;;;;;;5103912;28;20455;-67
2023/04/13 01:07:46;;;;;;;2.47;1.50;;;;;;;;;;5102539;28;20474;-68
2023/04/13 01:10:16;;;;;;;3.80;1.50;;;;;;;;;;5096603;27;20486;-67
2023/04/13 01:12:49;;;;;;;5.27;1.43;;;;;;;;;;5103276;28;20461;-67
2023/04/13 01:15:16;;;;;;;1.57;1.47;;;;;;;;;;5103026;28;20505;-67
2023/04/13 01:17:44;;;;;;;2.00;1.80;;;;;;;;;;5106042;28;21013;-67
2023/04/13 01:20:13;;;;;;;3.20;1.47;;;;;;;;;;5102325;28;20830;-67
2023/04/13 01:22:41;;;;;;;3.70;1.67;;;;;;;;;;5086995;28;20799;-67
2023/04/13 01:25:22;;;;;;;4.73;1.73;;;;;;;;;;5083179;28;20456;-67
2023/04/13 01:27:53;;;;;;;1.87;1.70;;;;;;;;;;5070476;28;20502;-67
2023/04/13 01:30:20;;;;;;;1.70;1.50;;;;;;;;;;5086809;28;20479;-67
2023/04/13 01:32:47;;;;;;;4.80;1.70;;;;;;;;;;5084879;28;20475;-67
2023/04/13 01:35:14;;;;;;;3.27;1.97;;;;;;;;;;5083078;28;20452;-67
2023/04/13 01:37:41;;;;;;;2.43;1.60;;;;;;;;;;5102977;28;21071;-68
2023/04/13 01:40:10;;;;;;;2.27;1.63;;;;;;;;;;5103273;27;20455;-67
2023/04/13 01:42:36;;;;;;;3.60;2.13;;;;;;;;;;5101977;28;20479;-67
2023/04/13 01:45:05;;;;;;;7.73;1.90;;;;;;;;;;5102396;28;20511;-67
2023/04/13 01:47:34;;;;;;;3.37;2.13;;;;;;;;;;5101745;28;20479;-67
2023/04/13 01:50:03;;;;;;;9.23;2.00;;;;;;;;;;5105083;28;20525;-67
2023/04/13 01:52:33;;;;;;;2.10;1.70;;;;;;;;;;5103134;27;20487;-67
2023/04/13 01:55:00;;;;;;;3.40;1.50;;;;;;;;;;5100082;28;20483;-65
2023/04/13 01:57:27;;;;;;;2.30;1.53;;;;;;;;;;5083181;28;21099;-65
2023/04/13 01:59:53;;;;;;;2.00;1.90;;;;;;;;;;5082236;28;20448;-67
2023/04/13 02:02:21;;;;;;;2.27;1.70;;;;;;;;;;5080907;28;20532;-67
2023/04/13 02:04:49;;;;;;;2.00;1.50;;;;;;;;;;5082386;28;20462;-66
2023/04/13 02:07:15;;;;;;;1.50;1.40;;;;;;;;;;5082358;28;20547;-66
2023/04/13 02:09:42;;;;;;;2.17;1.47;;;;;;;;;;5085689;28;20460;-66
2023/04/13 02:12:08;;;;;;;2.20;1.30;;;;;;;;;;5082043;28;20556;-65
2023/04/13 02:14:35;;;;;;;3.70;1.43;;;;;;;;;;5089109;28;20462;-66
2023/04/13 02:17:01;;;;;;;5.67;2.00;;;;;;;;;;5105508;28;20471;-68
2023/04/13 02:19:29;;;;;;;2.10;1.20;;;;;;;;;;5112025;28;20475;-67
2023/04/13 02:21:55;;;;;;;2.10;1.20;;;;;;;;;;5104625;27;20520;-69
2023/04/13 02:24:22;;;;;;;5.30;1.40;;;;;;;;;;5103145;28;20466;-68
2023/04/13 02:26:48;;;;;;;3.40;1.70;;;;;;;;;;5101698;28;20562;-68
2023/04/13 02:29:15;;;;;;;3.27;1.23;;;;;;;;;;5101237;28;20501;-68
2023/04/13 02:31:44;;;;;;;3.17;1.27;;;;;;;;;;5088492;27;20543;-68
2023/04/13 02:34:11;;;;;;;3.37;1.20;;;;;;;;;;5088240;28;20451;-68
2023/04/13 02:36:39;;;;;;;3.20;2.03;;;;;;;;;;5085564;28;20479;-68
2023/04/13 02:39:05;;;;;;;1.57;1.37;;;;;;;;;;5085917;28;20451;-68
2023/04/13 02:41:33;;;;;;;2.13;1.10;;;;;;;;;;5080352;28;20464;-68
2023/04/13 02:43:59;;;;;;;1.80;1.23;;;;;;;;;;5085498;28;20568;-67
2023/04/13 02:46:26;;;;;;;2.07;1.40;;;;;;;;;;5097148;27;20507;-67
2023/04/13 02:48:52;;;;;;;2.63;1.30;;;;;;;;;;5104037;28;20468;-68
2023/04/13 02:51:19;;;;;;;3.40;1.60;;;;;;;;;;5101011;28;20507;-67
2023/04/13 02:53:47;;;;;;;2.07;1.47;;;;;;;;;;5103516;28;20447;-68
2023/04/13 02:56:14;;;;;;;2.83;1.30;;;;;;;;;;5103526;28;20470;-68
2023/04/13 02:58:41;;;;;;;3.70;1.30;;;;;;;;;;5102583;28;20486;-68
2023/04/13 03:01:08;;;;;;;1.27;1.13;;;;;;;;;;5102241;28;20493;-69
2023/04/13 03:03:34;;;;;;;1.47;1.03;;;;;;;;;;5099388;28;20533;-69
2023/04/13 03:06:00;;;;;;;2.03;1.43;;;;;;;;;;5100635;28;20513;-68
2023/04/13 03:08:27;;;;;;;3.90;1.47;;;;;;;;;;5102283;28;20515;-68
2023/04/13 03:10:55;;;;;;;1.23;0.90;;;;;;;;;;5101103;28;20496;-69
2023/04/13 03:13:21;;;;;;;3.03;0.87;;;;;;;;;;5105055;28;20454;-68
2023/04/13 03:15:48;;;;;;;1.70;0.87;;;;;;;;;;5103804;28;20474;-68
2023/04/13 03:18:15;;;;;;;1.90;1.10;;;;;;;;;;5104824;28;20490;-67
2023/04/13 03:20:42;;;;;;;4.77;1.13;;;;;;;;;;5104517;27;20481;-67
2023/04/13 03:23:09;;;;;;;1.53;1.00;;;;;;;;;;5105947;28;20459;-67
2023/04/13 03:25:35;;;;;;;2.17;1.43;;;;;;;;;;5108127;28;20462;-67
2023/04/13 03:28:03;;;;;;;2.00;0.87;;;;;;;;;;5104782;28;20486;-67
2023/04/13 03:30:30;;;;;;;6.73;1.27;;;;;;;;;;5104637;27;21045;-66
2023/04/13 03:32:56;;;;;;;1.37;1.00;;;;;;;;;;5105634;28;20501;-66
2023/04/13 03:35:23;;;;;;;3.37;1.07;;;;;;;;;;5114052;28;20482;-66
2023/04/13 03:37:49;;;;;;;2.10;1.30;;;;;;;;;;5104967;28;20577;-66
2023/04/13 03:40:15;;;;;;;1.70;0.83;;;;;;;;;;5104698;28;20473;-66
2023/04/13 03:42:42;;;;;;;1.07;0.93;;;;;;;;;;5105916;28;20483;-67
2023/04/13 03:45:10;;;;;;;3.63;1.10;;;;;;;;;;5115122;28;20892;-67
2023/04/13 03:47:38;;;;;;;1.70;0.90;;;;;;;;;;5109776;28;20450;-67
2023/04/13 03:50:05;;;;;;;1.50;1.00;;;;;;;;;;5104903;28;20988;-67
2023/04/13 03:52:31;;;;;;;3.93;0.83;;;;;;;;;;5112592;28;20552;-69
2023/04/13 03:54:58;;;;;;;1.67;1.10;;;;;;;;;;5111358;28;20497;-68
2023/04/13 03:57:25;;;;;;;2.47;0.80;;;;;;;;;;5108055;28;20532;-67
2023/04/13 03:59:51;;;;;;;1.23;0.77;;;;;;;;;;5105652;28;20467;-68
2023/04/13 04:02:20;;;;;;;1.73;1.00;;;;;;;;;;5106505;28;20486;-68
2023/04/13 04:04:47;;;;;;;1.77;0.93;;;;;;;;;;5107790;28;20450;-67
2023/04/13 04:07:13;;;;;;;2.73;0.63;;;;;;;;;;5104987;28;20524;-68
2023/04/13 04:09:39;;;;;;;1.87;1.00;;;;;;;;;;5107149;28;20518;-67
2023/04/13 04:12:06;;;;;;;2.13;0.80;;;;;;;;;;5087306;28;20514;-67
2023/04/13 04:14:32;;;;;;;4.10;1.40;;;;;;;;;;5084737;28;20479;-67
2023/04/13 04:16:59;;;;;;;1.60;1.00;;;;;;;;;;5100355;28;20924;-68
2023/04/13 04:19:27;;;;;;;3.23;1.00;;;;;;;;;;5108948;28;20558;-67
2023/04/13 04:21:56;;;;;;;3.40;1.40;;;;;;;;;;5103977;28;20502;-68
2023/04/13 04:24:23;;;;;;;3.00;1.40;;;;;;;;;;5110912;28;20455;-67
2023/04/13 04:26:49;;;;;;;3.47;0.93;;;;;;;;;;5104358;28;20529;-68
2023/04/13 04:29:16;;;;;;;5.47;1.43;;;;;;;;;;5104358;28;20451;-66
2023/04/13 04:31:43;;;;;;;1.70;1.27;;;;;;;;;;5089296;28;20503;-67
2023/04/13 04:34:10;;;;;;;1.97;0.83;;;;;;;;;;5084650;28;20465;-66
2023/04/13 04:36:40;;;;;;;1.63;0.97;;;;;;;;;;5085984;28;20484;-66
2023/04/13 04:39:07;;;;;;;2.70;1.10;;;;;;;;;;5093943;28;20474;-67
2023/04/13 04:41:36;;;;;;;2.00;1.20;;;;;;;;;;5082219;28;21066;-67
2023/04/13 04:44:03;;;;;;;2.53;1.20;;;;;;;;;;5093886;28;20455;-67
2023/04/13 04:46:29;;;;;;;1.83;0.83;;;;;;;;;;5084077;28;20466;-66
2023/04/13 04:48:59;;;;;;;4.10;1.10;;;;;;;;;;5088421;28;20959;-66
2023/04/13 04:51:26;;;;;;;2.17;0.80;;;;;;;;;;5085108;28;20488;-66
2023/04/13 04:53:56;;;;;;;3.73;0.90;;;;;;;;;;5084562;28;20452;-66
2023/04/13 04:56:22;;;;;;;1.93;0.70;;;;;;;;;;5092894;28;20473;-68
2023/04/13 04:58:49;;;;;;;2.70;0.97;;;;;;;;;;5105183;28;20490;-67
2023/04/13 05:01:16;;;;;;;3.80;1.30;;;;;;;;;;5102916;28;21229;-67
2023/04/13 05:03:43;;;;;;;1.30;0.73;;;;;;;;;;5103976;28;20487;-68
2023/04/13 05:06:09;;;;;;;1.13;0.87;;;;;;;;;;5104374;27;20483;-67
2023/04/13 05:08:36;;;;;;;2.30;1.10;;;;;;;;;;5103870;28;20455;-68
2023/04/13 05:11:07;;;;;;;2.50;1.00;;;;;;;;;;5102909;28;20492;-68
2023/04/13 05:13:33;;;;;;;2.20;0.80;;;;;;;;;;5104043;28;20986;-67
2023/04/13 05:16:00;;;;;;;2.93;1.13;;;;;;;;;;5110792;27;20494;-67
2023/04/13 05:18:26;;;;;;;1.50;1.10;;;;;;;;;;5101305;28;21084;-67
2023/04/13 05:20:53;;;;;;;2.60;0.90;;;;;;;;;;5103132;28;20470;-68
2023/04/13 05:23:19;;;;;;;2.30;1.00;;;;;;;;;;5107794;28;20496;-67
2023/04/13 05:25:46;;;;;;;1.37;1.17;;;;;;;;;;5097312;28;20510;-67
2023/04/13 05:28:14;;;;;;;1.23;0.93;;;;;;;;;;5087254;28;20459;-67
2023/04/13 05:30:40;;;;;;;1.00;0.90;;;;;;;;;;5088848;27;20471;-66
2023/04/13 05:33:08;;;;;;;2.03;1.17;;;;;;;;;;5103401;28;20446;-66
2023/04/13 05:35:36;;;;;;;2.07;0.90;;;;;;;;;;5094907;28;20509;-67
2023/04/13 05:38:08;;;;;;;1.10;1.00;;;;;;;;;;5077528;28;20483;-67
2023/04/13 05:40:34;;;;;;;1.43;1.00;;;;;;;;;;5086073;28;20494;-67
2023/04/13 05:43:01;;;;;;;3.80;0.87;;;;;;;;;;5106544;28;20465;-67
2023/04/13 05:45:29;;;;;;;5.83;0.90;;;;;;;;;;5102470;28;20490;-67
2023/04/13 05:47:55;;;;;;;1.70;0.70;;;;;;;;;;5101783;28;20481;-67
2023/04/13 05:50:21;;;;;;;1.00;0.90;;;;;;;;;;5102059;28;20486;-68
2023/04/13 05:52:48;;;;;;;2.27;0.90;;;;;;;;;;5102097;28;20446;-66
2023/04/13 05:55:15;;;;;;;3.33;0.73;;;;;;;;;;5102449;27;20455;-67
2023/04/13 05:57:41;;;;;;;2.03;1.10;;;;;;;;;;5101703;28;20451;-67
2023/04/13 06:00:09;;;;;;;3.53;1.40;;;;;;;;;;5102386;28;20489;-67
2023/04/13 06:02:38;;;;;;;1.00;0.90;;;;;;;;;;5102006;28;20486;-67
2023/04/13 06:05:06;;;;;;;6.20;1.23;;;;;;;;;;5102666;28;20516;-66
2023/04/13 06:07:34;;;;;;;3.57;0.90;;;;;;;;;;5102445;28;20478;-67
2023/04/13 06:10:01;;;;;;;2.40;0.90;;;;;;;;;;5101863;28;20451;-67
2023/04/13 06:12:27;;;;;;;4.40;1.23;;;;;;;;;;5100706;27;20483;-67
2023/04/13 06:14:54;;;;;;;2.20;0.87;;;;;;;;;;5102254;28;20446;-68
2023/04/13 06:17:20;;;;;;;1.87;0.90;;;;;;;;;;5108016;28;20598;-68
2023/04/13 06:19:48;;;;;;;1.93;1.20;;;;;;;;;;5106710;28;21135;-68
2023/04/13 06:22:14;;;;;;;1.50;0.80;;;;;;;;;;5085507;28;20511;-68
2023/04/13 06:24:41;;;;;;;2.27;1.03;;;;;;;;;;5082544;28;20879;-68
2023/04/13 06:27:10;;;;;;;2.00;0.60;;;;;;;;;;5097110;28;20502;-68
2023/04/13 06:29:37;;;;;;;1.30;1.07;;;;;;;;;;5101577;28;20479;-66
2023/04/13 06:32:03;;;;;;;1.50;0.90;;;;;;;;;;5085378;28;20509;-66
2023/04/13 06:34:30;;;;;;;1.63;0.93;;;;;;;;;;5085690;28;20926;-67
2023/04/13 06:36:58;;;;;;;1.07;0.70;;;;;;;;;;5096167;28;20495;-68
2023/04/13 06:39:26;;;;;;;1.50;1.10;;;;;;;;;;5101421;28;21089;-69
2023/04/13 06:41:52;;;;;;;1.67;0.87;;;;;;;;;;5099275;28;21081;-69
2023/04/13 06:44:19;;;;;;;3.40;1.10;;;;;;;;;;5101540;28;20483;-67
2023/04/13 06:46:45;;;;;;;1.53;0.90;;;;;;;;;;5107255;27;20521;-68
2023/04/13 06:49:12;;;;;;;1.80;1.33;;;;;;;;;;5111064;28;20458;-68
2023/04/13 06:51:39;;;;;;;1.00;0.90;;;;;;;;;;5103822;28;20479;-68
2023/04/13 06:54:06;;;;;;;1.93;1.40;;;;;;;;;;5104819;28;20490;-69
2023/04/13 06:56:33;;;;;;;2.70;1.63;;;;;;;;;;5102622;27;20552;-68
2023/04/13 06:59:00;;;;;;;1.93;1.53;;;;;;;;;;5100466;28;21082;-68
2023/04/13 07:01:27;;;;;;;4.13;1.30;;;;;;;;;;5092354;27;20956;-68
2023/04/13 07:03:55;;;;;;;2.50;1.70;;;;;;;;;;5087247;28;20766;-68
2023/04/13 07:06:21;;;;;;;3.57;1.97;;;;;;;;;;5098254;28;20487;-68
2023/04/13 07:08:50;;;;;;;1.70;1.60;;;;;;;;;;5108949;28;20970;-68
2023/04/13 07:11:18;;;;;;;2.90;1.60;;;;;;;;;;5100753;27;20497;-69
2023/04/13 07:13:44;;;;;;;2.53;1.90;;;;;;;;;;5104377;28;20508;-67
2023/04/13 07:16:11;;;;;;;2.20;1.70;;;;;;;;;;5095186;27;20995;-67
2023/04/13 07:18:38;;;;;;;2.20;1.63;;;;;;;;;;5084247;28;20480;-67
2023/04/13 07:21:04;;;;;;;1.93;1.63;;;;;;;;;;5089470;28;20482;-67
2023/04/13 07:23:32;;;;;;;3.43;1.90;;;;;;;;;;5101348;28;20510;-67
2023/04/13 07:25:59;;;;;;;3.10;1.93;;;;;;;;;;5103295;28;20703;-67
2023/04/13 07:28:27;;;;;;;2.13;1.70;;;;;;;;;;5111503;28;20554;-68
2023/04/13 07:30:53;;;;;;;1.77;1.67;;;;;;;;;;5100298;28;20479;-66
2023/04/13 07:33:19;;;;;;;3.57;2.23;;;;;;;;;;5101857;28;20535;-66
2023/04/13 07:35:49;;;;;;;2.13;1.50;;;;;;;;;;5105306;28;20958;-65
2023/04/13 07:38:15;;;;;;;2.63;2.17;;;;;;;;;;5106454;28;20907;-65
2023/04/13 07:40:41;;;;;;;1.60;1.50;;;;;;;;;;5103559;27;20490;-65
2023/04/13 07:43:08;;;;;;;2.50;1.40;;;;;;;;;;5103015;28;20522;-66
2023/04/13 07:45:36;;;;;;;2.10;1.37;;;;;;;;;;5099526;28;20481;-66
2023/04/13 07:48:02;;;;;;;1.40;1.30;;;;;;;;;;5098856;28;20978;-72
2023/04/13 07:50:28;;;;;;;1.73;1.50;;;;;;;;;;5100622;28;20500;-68
2023/04/13 07:52:55;;;;;;;2.40;2.00;;;;;;;;;;5100155;28;20955;-69
2023/04/13 07:55:21;;;;;;;2.70;1.70;;;;;;;;;;5101462;28;20546;-69
2023/04/13 07:57:48;;;;;;;1.90;1.80;;;;;;;;;;5100779;28;20475;-69
2023/04/13 08:00:15;;;;;;;3.77;2.27;;;;;;;;;;5099775;27;20486;-69
2023/04/13 08:02:43;;;;;;;3.10;2.70;;;;;;;;;;5101569;28;20490;-69
2023/04/13 08:05:10;;;;;;;2.80;2.60;;;;;;;;;;5099945;28;20501;-69
2023/04/13 08:07:37;;;;;;;4.60;2.40;;;;;;;;;;5103712;28;20468;-69
2023/04/13 08:10:04;;;;;;;3.37;2.70;;;;;;;;;;5108681;28;20454;-69
2023/04/13 08:12:30;;;;;;;5.20;2.30;;;;;;;;;;5103590;28;20532;-69
2023/04/13 08:14:56;;;;;;;5.90;3.90;;;;;;;;;;5111025;28;20461;-69
2023/04/13 08:17:23;;;;;;;2.63;2.20;;;;;;;;;;5086779;28;20510;-69
2023/04/13 08:19:51;;;;;;;3.40;1.80;;;;;;;;;;5084623;28;20491;-69
2023/04/13 08:22:17;;;;;;;2.37;1.90;;;;;;;;;;5082261;28;20467;-70
2023/04/13 08:24:44;;;;;;;3.00;2.03;;;;;;;;;;5088143;28;20451;-69
2023/04/13 08:27:11;;;;;;;2.20;1.90;;;;;;;;;;5086637;28;20481;-69
2023/04/13 08:29:37;;;;;;;2.80;1.97;;;;;;;;;;5083935;28;20452;-69
2023/04/13 08:32:04;;;;;;;3.40;1.93;;;;;;;;;;5084900;28;20503;-69
2023/04/13 08:34:30;;;;;;;2.90;1.80;;;;;;;;;;5086923;28;20469;-69
2023/04/13 08:36:58;;;;;;;2.77;1.90;;;;;;;;;;5110736;28;20552;-70
2023/04/13 08:39:24;;;;;;;2.60;1.77;;;;;;;;;;5106455;28;20525;-69
2023/04/13 08:41:51;;;;;;;7.33;3.00;;;;;;;;;;5088067;27;20538;-69
2023/04/13 08:44:17;;;;;;;4.33;2.30;;;;;;;;;;5087436;28;20506;-69
2023/04/13 08:46:44;;;;;;;3.10;2.17;;;;;;;;;;5083243;28;20931;-69
2023/04/13 08:49:11;;;;;;;3.70;2.10;;;;;;;;;;5082833;28;20470;-70
2023/04/13 08:51:40;;;;;;;2.80;1.70;;;;;;;;;;5098787;28;20505;-69
2023/04/13 08:54:08;;;;;;;2.80;1.90;;;;;;;;;;5104642;28;20477;-69
2023/04/13 08:56:35;;;;;;;5.57;2.53;;;;;;;;;;5103081;28;21010;-69
2023/04/13 08:59:03;;;;;;;2.30;1.87;;;;;;;;;;5103602;28;20487;-69
2023/04/13 09:01:31;;;;;;;5.30;1.97;;;;;;;;;;5095583;28;20491;-69
2023/04/13 09:04:01;;;;;;;3.00;1.77;;;;;;;;;;5101884;28;20660;-70
2023/04/13 09:06:34;;;;;;;2.53;1.33;;;;;;;;;;5093982;28;20471;-69
2023/04/13 09:09:03;;;;;;;2.43;1.73;;;;;;;;;;5107164;28;20459;-68
2023/04/13 09:11:32;;;;;;;4.13;1.53;;;;;;;;;;5107724;28;20537;-69
2023/04/13 09:13:59;;;;;;;4.20;1.30;;;;;;;;;;5110982;28;20466;-69
2023/04/13 09:16:26;;;;;;;3.07;1.33;;;;;;;;;;5108624;27;20467;-71
2023/04/13 09:18:54;;;;;;;2.53;1.60;;;;;;;;;;5107499;28;20463;-68
2023/04/13 09:21:21;;;;;;;2.33;1.17;;;;;;;;;;5101626;28;20554;-68
2023/04/13 09:23:54;;;;;;;3.33;1.37;;;;;;;;;;5103739;28;20470;-69
2023/04/13 09:26:21;;;;;;;3.13;1.30;;;;;;;;;;5101873;27;20482;-69
2023/04/13 09:28:50;;;;;;;2.67;0.93;;;;;;;;;;5101643;28;20455;-69
2023/04/13 09:31:16;;;;;;;2.00;0.80;;;;;;;;;;5093113;28;20490;-67
2023/04/13 09:33:44;;;;;;;1.90;1.00;;;;;;;;;;5086161;28;20476;-69
2023/04/13 09:36:11;;;;;;;3.23;1.40;;;;;;;;;;5078243;28;20487;-72
2023/04/13 09:38:38;;;;;;;2.30;1.17;;;;;;;;;;5082365;28;20460;-71
2023/04/13 09:41:04;;;;;;;2.60;0.83;;;;;;;;;;5082685;28;20552;-71
2023/04/13 09:43:34;;;;;;;3.53;1.00;;;;;;;;;;5091450;28;20455;-72
2023/04/13 09:46:02;;;;;;;1.37;0.90;;;;;;;;;;5094759;28;20480;-71
2023/04/13 09:48:29;;;;;;;3.30;1.17;;;;;;;;;;5102406;28;20985;-71
2023/04/13 09:50:59;;;;;;;4.17;1.13;;;;;;;;;;5106897;27;20483;-71
2023/04/13 09:53:26;;;;;;;2.53;1.13;;;;;;;;;;5108097;28;20990;-70
2023/04/13 09:55:57;;;;;;;1.63;1.10;;;;;;;;;;5108833;28;20537;-70
2023/04/13 09:58:24;;;;;;;10.33;1.70;;;;;;;;;;5109617;28;20534;-71
2023/04/13 10:00:50;;;;;;;1.00;0.90;;;;;;;;;;5096712;28;20516;-71
2023/04/13 10:03:21;;;;;;;4.17;1.93;;;;;;;;;;5082479;28;20483;-71
2023/04/13 10:05:47;;;;;;;1.27;0.83;;;;;;;;;;5082737;28;20470;-70
2023/04/13 10:08:14;;;;;;;1.20;0.70;;;;;;;;;;5082479;28;20447;-71
2023/04/13 10:10:40;;;;;;;5.60;1.30;;;;;;;;;;5086397;28;20501;-71
2023/04/13 10:13:10;;;;;;;1.87;1.07;;;;;;;;;;5106792;28;20486;-71
2023/04/13 10:15:42;;;;;;;4.40;1.53;;;;;;;;;;5104026;28;20470;-71
2023/04/13 10:18:13;;;;;;;2.30;1.23;;;;;;;;;;5100348;28;20530;-72
2023/04/13 10:20:42;;;;;;;1.57;1.30;;;;;;;;;;5103843;28;20494;-72
2023/04/13 10:23:09;;;;;;;4.70;1.43;;;;;;;;;;5105507;28;20445;-71
2023/04/13 10:25:36;;;;;;;2.80;1.30;;;;;;;;;;5099178;28;20486;-71
2023/04/13 10:28:02;;;;;;;2.93;1.40;;;;;;;;;;5085293;28;20543;-71
2023/04/13 10:30:28;;;;;;;2.73;1.60;;;;;;;;;;5090400;27;20539;-71
2023/04/13 10:33:02;;;;;;;3.20;1.50;;;;;;;;;;5101852;28;21008;-71
2023/04/13 10:35:29;;;;;;;2.50;1.77;;;;;;;;;;5105167;28;20469;-71
2023/04/13 10:37:58;;;;;;;4.53;2.17;;;;;;;;;;5095717;28;20539;-70
2023/04/13 10:40:24;;;;;;;3.10;1.90;;;;;;;;;;5102057;27;20500;-70
2023/04/13 10:42:51;;;;;;;2.70;1.93;;;;;;;;;;5100744;28;20464;-71
2023/04/13 10:45:19;;;;;;;3.40;2.00;;;;;;;;;;5104572;28;20447;-72
2023/04/13 10:47:45;;;;;;;2.10;1.90;;;;;;;;;;5097774;28;20451;-70
2023/04/13 10:50:16;;;;;;;3.60;2.17;;;;;;;;;;5101729;27;20472;-73
2023/04/13 10:52:42;;;;;;;2.60;1.97;;;;;;;;;;5106949;28;20498;-71
2023/04/13 10:55:10;;;;;;;3.60;1.90;;;;;;;;;;5107073;28;20478;-72
2023/04/13 10:57:38;;;;;;;2.60;2.03;;;;;;;;;;5100460;28;20461;-72
2023/04/13 11:00:20;;;;;;;4.03;2.10;;;;;;;;;;5101426;28;21139;-71
2023/04/13 11:02:48;;;;;;;2.00;1.50;;;;;;;;;;5098423;28;20893;-72
2023/04/13 11:05:15;;;;;;;3.50;1.67;;;;;;;;;;5109737;27;20458;-72
2023/04/13 11:07:44;;;;;;;3.73;1.73;;;;;;;;;;5101895;28;20459;-71
2023/04/13 11:10:11;;;;;;;2.90;1.70;;;;;;;;;;5088634;27;20458;-72
2023/04/13 11:12:38;;;;;;;7.80;1.97;;;;;;;;;;5082049;28;20459;-72
2023/04/13 11:15:05;;;;;;;2.33;1.70;;;;;;;;;;5081768;28;20511;-73
2023/04/13 11:17:31;;;;;;;5.37;1.63;;;;;;;;;;5110115;28;20558;-71
2023/04/13 11:19:58;;;;;;;2.47;1.80;;;;;;;;;;5108766;28;20512;-71
2023/04/13 11:22:26;;;;;;;2.27;1.53;;;;;;;;;;5114016;27;20482;-72
2023/04/13 11:24:53;;;;;;;5.43;1.93;;;;;;;;;;5115806;28;20439;-73
2023/04/13 11:27:22;;;;;;;4.57;1.60;;;;;;;;;;5089891;27;20468;-73
2023/04/13 11:29:57;;;;;;;6.03;1.70;;;;;;;;;;5078537;28;20456;-73
2023/04/13 11:32:24;;;;;;;2.33;1.60;;;;;;;;;;5080668;28;20518;-71
2023/04/13 11:34:51;;;;;;;2.90;2.30;;;;;;;;;;5079956;28;20444;-72
2023/04/13 11:37:18;;;;;;;3.37;1.70;;;;;;;;;;5080703;28;20483;-72
2023/04/13 11:39:45;;;;;;;2.60;1.57;;;;;;;;;;5081980;28;20890;-72
2023/04/13 11:42:12;;;;;;;2.63;1.83;;;;;;;;;;5082716;28;21680;-72
2023/04/13 11:44:41;;;;;;;4.30;2.30;;;;;;;;;;5089366;28;20472;-72
2023/04/13 11:47:11;;;;;;;7.47;2.50;;;;;;;;;;5085830;28;20497;-71
2023/04/13 11:49:40;;;;;;;2.83;2.10;;;;;;;;;;5082782;28;20483;-71
2023/04/13 11:52:06;;;;;;;3.93;2.30;;;;;;;;;;5084927;28;20813;-71
2023/04/13 11:54:33;;;;;;;2.63;1.90;;;;;;;;;;5084947;28;20801;-71
2023/04/13 11:57:00;;;;;;;3.40;2.30;;;;;;;;;;5103943;28;20591;-71
2023/04/13 11:59:27;;;;;;;5.73;2.33;;;;;;;;;;5113224;28;20486;-71
2023/04/13 12:01:55;;;;;;;2.37;1.83;;;;;;;;;;5103348;28;20564;-71
2023/04/13 12:04:22;;;;;;;2.87;2.57;;;;;;;;;;5093255;28;20455;-70
2023/04/13 12:06:48;;;;;;;4.87;1.83;;;;;;;;;;5103681;28;20527;-71
2023/04/13 12:09:14;;;;;;;4.13;1.97;;;;;;;;;;5104855;28;20509;-71
2023/04/13 12:11:42;;;;;;;4.70;1.90;;;;;;;;;;5106388;28;20520;-72
2023/04/13 12:14:08;;;;;;;2.97;2.07;;;;;;;;;;5106276;28;20458;-71
2023/04/13 12:16:35;;;;;;;2.90;2.30;;;;;;;;;;5095472;28;20476;-72
2023/04/13 12:19:09;;;;;;;5.77;2.47;;;;;;;;;;5084976;28;20467;-71
2023/04/13 12:21:36;;;;;;;5.60;2.53;;;;;;;;;;5095392;28;20482;-71
2023/04/13 12:24:03;;;;;;;6.10;2.97;;;;;;;;;;5103301;28;20527;-72
2023/04/13 12:26:32;;;;;;;5.63;2.60;;;;;;;;;;5090752;27;21000;-67
2023/04/13 12:28:59;;;;;;;4.10;2.27;;;;;;;;;;5081252;28;20967;-67
2023/04/13 12:31:32;;;;;;;6.47;2.43;;;;;;;;;;5099628;28;20587;-67
2023/04/13 12:33:58;;;;;;;4.60;2.80;;;;;;;;;;5109967;28;20989;-66
2023/04/13 12:36:30;;;;;;;3.50;2.67;;;;;;;;;;5093551;28;20540;-66
2023/04/13 12:38:56;;;;;;;5.00;2.73;;;;;;;;;;5074124;28;20472;-66
2023/04/13 12:41:23;;;;;;;6.00;2.83;;;;;;;;;;5076564;28;20500;-67
2023/04/13 12:43:49;;;;;;;5.47;3.20;;;;;;;;;;5078837;28;20460;-68
2023/04/13 12:46:16;;;;;;;3.20;2.50;;;;;;;;;;5076331;28;20491;-66
2023/04/13 12:48:42;;;;;;;4.60;2.90;;;;;;;;;;5080664;28;20476;-67
2023/04/13 12:51:09;;;;;;;4.57;2.63;;;;;;;;;;5092127;27;20509;-67
2023/04/13 12:53:36;;;;;;;8.00;3.83;;;;;;;;;;5101656;28;20447;-67
2023/04/13 12:56:03;;;;;;;4.27;2.90;;;;;;;;;;5101358;28;20523;-66
2023/04/13 12:58:30;;;;;;;4.20;2.73;;;;;;;;;;5101473;28;20535;-67
2023/04/13 13:00:57;;;;;;;4.77;3.40;;;;;;;;;;5100992;28;20494;-67
2023/04/13 13:03:23;;;;;;;7.03;3.07;;;;;;;;;;5100521;28;20482;-67
2023/04/13 13:05:50;;;;;;;4.73;3.77;;;;;;;;;;5100401;28;20524;-67
2023/04/13 13:08:16;;;;;;;5.17;3.87;;;;;;;;;;5096830;28;20981;-67
2023/04/13 13:10:44;;;;;;;5.53;3.67;;;;;;;;;;5095195;28;20503;-67
2023/04/13 13:13:10;;;;;;;4.50;3.90;;;;;;;;;;5084292;28;20520;-67
2023/04/13 13:15:37;;;;;;;4.67;3.40;;;;;;;;;;5088637;27;20477;-67
2023/04/13 13:18:05;;;;;;;5.77;3.63;;;;;;;;;;5100117;28;20494;-67
2023/04/13 13:20:31;;;;;;;5.37;3.80;;;;;;;;;;5100990;28;20897;-68
2023/04/13 13:22:58;;;;;;;9.73;3.43;;;;;;;;;;5085995;28;20541;-67
2023/04/13 13:25:25;;;;;;;9.27;3.60;;;;;;;;;;5079406;28;20461;-67
2023/04/13 13:27:54;;;;;;;6.47;3.23;;;;;;;;;;5083879;28;20484;-67
2023/04/13 13:30:21;;;;;;;4.97;2.83;;;;;;;;;;5083336;28;20468;-66
2023/04/13 13:32:47;;;;;;;4.53;3.67;;;;;;;;;;5080595;28;20448;-66
2023/04/13 13:35:14;;;;;;;5.73;3.10;;;;;;;;;;5081070;28;20448;-67
2023/04/13 13:37:40;;;;;;;5.53;2.50;;;;;;;;;;5085389;28;20907;-66
2023/04/13 13:40:09;;;;;;;4.53;2.60;;;;;;;;;;5080460;27;20476;-65
2023/04/13 13:42:37;;;;;;;7.83;2.40;;;;;;;;;;5099917;28;20476;-66
2023/04/13 13:45:06;;;;;;;4.60;2.40;;;;;;;;;;5100950;28;20459;-66
2023/04/13 13:47:32;;;;;;;6.10;2.73;;;;;;;;;;5099342;28;20463;-77
2023/04/13 13:49:59;;;;;;;7.40;3.07;;;;;;;;;;5099671;28;20497;-68
2023/04/13 13:52:25;;;;;;;5.67;2.30;;;;;;;;;;5097622;28;21034;-72
2023/04/13 13:54:53;;;;;;;4.70;2.53;;;;;;;;;;5099089;28;20458;-70
2023/04/13 13:57:19;;;;;;;8.40;3.10;;;;;;;;;;5102911;28;20485;-69
2023/04/13 13:59:46;;;;;;;6.30;2.40;;;;;;;;;;5106234;28;20583;-69
2023/04/13 14:02:13;;;;;;;4.90;2.33;;;;;;;;;;5090103;27;20530;-69
2023/04/13 14:04:40;;;;;;;5.23;2.50;;;;;;;;;;5080989;28;20486;-70
2023/04/13 14:07:07;;;;;;;5.10;2.00;;;;;;;;;;5078757;28;20476;-69
2023/04/13 14:09:34;;;;;;;7.40;2.57;;;;;;;;;;5087649;28;20599;-69
2023/04/13 14:12:00;;;;;;;6.93;2.10;;;;;;;;;;5100087;28;20488;-69
2023/04/13 14:14:27;;;;;;;5.13;2.37;;;;;;;;;;5102870;28;20463;-69
2023/04/13 14:16:53;;;;;;;5.60;2.47;;;;;;;;;;5103784;27;20475;-69
2023/04/13 14:19:21;;;;;;;5.20;2.70;;;;;;;;;;5104601;28;20447;-69
2023/04/13 14:21:49;;;;;;;4.60;2.20;;;;;;;;;;5101602;28;20487;-69
2023/04/13 14:24:16;;;;;;;4.50;2.13;;;;;;;;;;5095577;28;20446;-69
2023/04/13 14:26:42;;;;;;;5.43;3.00;;;;;;;;;;5101268;28;20487;-69
2023/04/13 14:29:08;;;;;;;6.53;2.93;;;;;;;;;;5101682;28;20932;-69
2023/04/13 14:31:35;;;;;;;7.43;3.20;;;;;;;;;;5113153;27;20586;-70
2023/04/13 14:34:01;;;;;;;4.53;2.57;;;;;;;;;;5102671;28;20999;-70
2023/04/13 14:36:29;;;;;;;6.03;2.80;;;;;;;;;;5100179;28;20506;-70
2023/04/13 14:38:58;;;;;;;6.00;2.70;;;;;;;;;;5103863;28;20514;-70
2023/04/13 14:41:25;;;;;;;4.67;2.20;;;;;;;;;;5093736;28;20488;-70
2023/04/13 14:43:51;;;;;;;3.50;2.27;;;;;;;;;;5081967;28;20614;-70